createdAt,value
2018-05-10T00:01:32.960Z,12.80
2018-05-10T00:04:02.299Z,12.90
2018-05-10T00:06:32.400Z,12.80
2018-05-10T00:09:01.716Z,12.80
2018-05-10T00:11:31.447Z,12.70
2018-05-10T00:14:00.767Z,12.80
2018-05-10T00:16:30.767Z,12.70
2018-05-10T00:19:00.885Z,12.60
2018-05-10T00:21:30.127Z,12.50
2018-05-10T00:23:59.710Z,12.50
2018-05-10T00:26:29.823Z,12.60
2018-05-10T00:28:59.116Z,12.60
2018-05-10T00:31:29.175Z,12.30
2018-05-10T00:33:58.584Z,12.30
2018-05-10T00:36:27.847Z,12.40
2018-05-10T00:38:57.152Z,12.50
2018-05-10T00:41:26.396Z,12.50
2018-05-10T00:43:55.835Z,12.60
2018-05-10T00:46:25.119Z,12.80
2018-05-10T00:48:54.424Z,12.60
2018-05-10T00:51:23.746Z,12.50
2018-05-10T00:53:53.021Z,12.50
2018-05-10T00:56:22.281Z,12.40
2018-05-10T00:58:51.577Z,12.40
2018-05-10T01:01:21.402Z,12.40
2018-05-10T01:03:50.753Z,12.20
2018-05-10T01:06:20.073Z,12.30
2018-05-10T01:08:49.340Z,12.20
2018-05-10T01:11:18.706Z,12.20
2018-05-10T01:13:48.543Z,12.20
2018-05-10T01:16:19.390Z,12.30
2018-05-10T01:18:50.129Z,12.30
2018-05-10T01:21:19.447Z,12.30
2018-05-10T01:23:48.752Z,12.30
2018-05-10T01:26:18.061Z,12.20
2018-05-10T01:28:48.135Z,12.00
2018-05-10T01:31:17.463Z,11.90
2018-05-10T01:33:46.927Z,12.10
2018-05-10T01:36:17.871Z,12.30
2018-05-10T01:38:47.562Z,12.20
2018-05-10T01:41:16.844Z,12.40
2018-05-10T01:43:46.907Z,12.50
2018-05-10T01:46:16.227Z,12.50
2018-05-10T01:48:45.535Z,12.30
2018-05-10T01:51:14.803Z,12.10
2018-05-10T01:53:44.100Z,11.80
2018-05-10T01:56:13.401Z,12.10
2018-05-10T01:58:42.736Z,12.30
2018-05-10T02:01:12.246Z,12.50
2018-05-10T02:03:43.051Z,12.60
2018-05-10T02:06:12.348Z,12.60
2018-05-10T02:08:41.667Z,12.40
2018-05-10T02:11:10.950Z,12.50
2018-05-10T02:13:40.445Z,12.60
2018-05-10T02:16:10.378Z,12.60
2018-05-10T02:18:39.679Z,12.50
2018-05-10T02:21:09.298Z,12.60
2018-05-10T02:23:38.621Z,12.50
2018-05-10T02:26:07.937Z,12.50
2018-05-10T02:28:37.692Z,12.40
2018-05-10T02:31:06.971Z,12.40
2018-05-10T02:33:36.216Z,12.40
2018-05-10T02:36:06.893Z,12.20
2018-05-10T02:38:36.191Z,12.30
2018-05-10T02:41:06.211Z,12.50
2018-05-10T02:43:35.485Z,12.50
2018-05-10T02:46:04.761Z,12.40
2018-05-10T02:48:34.127Z,12.50
2018-05-10T02:51:04.560Z,12.50
2018-05-10T02:53:33.845Z,12.40
2018-05-10T02:56:05.268Z,12.40
2018-05-10T02:58:34.605Z,12.40
2018-05-10T03:01:03.917Z,12.30
2018-05-10T03:03:33.187Z,12.30
2018-05-10T03:06:02.570Z,12.30
2018-05-10T03:08:31.820Z,12.30
2018-05-10T03:11:01.091Z,12.20
2018-05-10T03:13:30.481Z,11.90
2018-05-10T03:16:00.513Z,12.20
2018-05-10T03:18:29.843Z,12.20
2018-05-10T03:20:59.691Z,12.20
2018-05-10T03:23:29.652Z,12.20
2018-05-10T03:25:58.972Z,12.00
2018-05-10T03:28:28.233Z,12.00
2018-05-10T03:30:57.503Z,12.10
2018-05-10T03:33:27.311Z,12.30
2018-05-10T03:35:56.595Z,12.50
2018-05-10T03:38:25.898Z,12.40
2018-05-10T03:40:55.205Z,12.50
2018-05-10T03:43:24.785Z,12.20
2018-05-10T03:45:54.057Z,12.00
2018-05-10T03:48:24.122Z,12.00
2018-05-10T03:50:53.478Z,12.00
2018-05-10T03:53:23.075Z,12.20
2018-05-10T03:55:52.351Z,12.40
2018-05-10T03:58:21.618Z,12.50
2018-05-10T04:00:50.899Z,12.50
2018-05-10T04:03:29.879Z,12.60
2018-05-10T04:06:10.543Z,12.60
2018-05-10T04:09:55.480Z,12.50
2018-05-10T04:12:24.784Z,12.50
2018-05-10T04:14:54.192Z,12.60
2018-05-10T04:17:24.164Z,12.50
2018-05-10T04:19:53.495Z,12.70
2018-05-10T04:22:23.539Z,12.50
2018-05-10T04:24:52.901Z,12.50
2018-05-10T04:27:22.958Z,12.60
2018-05-10T04:29:52.248Z,12.60
2018-05-10T04:32:21.995Z,12.60
2018-05-10T04:34:51.299Z,12.70
2018-05-10T04:37:20.577Z,12.70
2018-05-10T04:39:49.831Z,12.70
2018-05-10T04:42:22.933Z,12.60
2018-05-10T04:44:57.467Z,12.90
2018-05-10T04:47:28.137Z,12.90
2018-05-10T04:49:58.333Z,13.00
2018-05-10T04:52:28.363Z,12.90
2018-05-10T04:54:57.681Z,12.90
2018-05-10T04:57:27.613Z,12.90
2018-05-10T04:59:57.675Z,13.00
2018-05-10T05:02:26.956Z,13.00
2018-05-10T05:04:57.007Z,13.60
2018-05-10T05:07:26.288Z,13.50
2018-05-10T05:09:55.564Z,13.60
2018-05-10T05:12:25.996Z,13.40
2018-05-10T05:14:56.124Z,13.40
2018-05-10T05:17:26.487Z,13.30
2018-05-10T05:19:55.784Z,13.30
2018-05-10T05:22:25.035Z,13.40
2018-05-10T05:24:56.863Z,13.50
2018-05-10T05:27:26.116Z,13.60
2018-05-10T05:29:55.638Z,13.60
2018-05-10T05:32:25.385Z,13.80
2018-05-10T05:34:54.843Z,13.90
2018-05-10T05:37:24.894Z,13.90
2018-05-10T05:39:54.738Z,14.00
2018-05-10T05:42:24.108Z,14.10
2018-05-10T05:44:53.400Z,13.80
2018-05-10T05:47:22.673Z,13.70
2018-05-10T05:49:52.023Z,13.60
2018-05-10T05:52:21.448Z,13.80
2018-05-10T05:54:50.744Z,13.80
2018-05-10T05:57:20.187Z,13.80
2018-05-10T05:59:50.817Z,14.10
2018-05-10T06:02:20.111Z,14.10
2018-05-10T06:04:50.171Z,14.10
2018-05-10T06:07:19.461Z,14.30
2018-05-10T06:09:48.800Z,14.30
2018-05-10T06:12:19.636Z,14.40
2018-05-10T06:14:49.572Z,14.50
2018-05-10T06:17:19.716Z,14.70
2018-05-10T06:19:50.192Z,14.90
2018-05-10T06:22:19.837Z,14.90
2018-05-10T06:24:49.253Z,15.20
2018-05-10T06:27:18.871Z,15.60
2018-05-10T06:29:49.787Z,16.40
2018-05-10T06:32:19.344Z,17.70
2018-05-10T06:34:49.067Z,19.40
2018-05-10T06:37:18.376Z,21.40
2018-05-10T06:39:47.660Z,23.40
2018-05-10T06:42:17.378Z,24.70
2018-05-10T06:44:46.762Z,25.40
2018-05-10T06:47:15.935Z,25.10
2018-05-10T06:49:45.707Z,26.00
2018-05-10T06:52:15.029Z,27.10
2018-05-10T06:54:45.200Z,28.60
2018-05-10T06:57:14.847Z,28.50
2018-05-10T06:59:44.181Z,29.10
2018-05-10T07:02:14.272Z,27.70
2018-05-10T07:05:09.950Z,27.70
2018-05-10T07:07:39.315Z,27.60
2018-05-10T07:10:08.959Z,27.90
2018-05-10T07:12:38.638Z,28.00
2018-05-10T07:15:10.659Z,27.90
2018-05-10T07:17:40.024Z,28.40
2018-05-10T07:20:10.617Z,28.20
2018-05-10T07:22:40.044Z,28.40
2018-05-10T07:25:10.532Z,30.30
2018-05-10T07:27:40.203Z,30.30
2018-05-10T07:30:09.552Z,31.60
2018-05-10T07:32:57.687Z,30.20
2018-05-10T07:35:30.487Z,30.10
2018-05-10T07:38:00.937Z,31.30
2018-05-10T07:40:32.037Z,31.30
2018-05-10T07:43:03.370Z,33.80
2018-05-10T07:45:32.705Z,35.10
2018-05-10T07:48:02.514Z,36.20
2018-05-10T07:50:32.699Z,35.70
2018-05-10T07:53:02.046Z,35.70
2018-05-10T07:55:33.100Z,32.40
2018-05-10T07:58:03.153Z,33.80
2018-05-10T08:00:34.466Z,33.80
2018-05-10T08:03:06.115Z,30.30
2018-05-10T08:05:36.595Z,29.40
2018-05-10T08:08:06.105Z,29.30
2018-05-10T08:10:35.402Z,29.50
2018-05-10T08:13:04.590Z,26.60
2018-05-10T08:15:34.512Z,23.90
2018-05-10T08:18:06.967Z,23.30
2018-05-10T08:20:36.484Z,23.50
2018-05-10T08:23:05.035Z,25.70
2018-05-10T08:25:35.094Z,26.50
2018-05-10T08:28:03.996Z,26.40
2018-05-10T08:30:36.972Z,24.70
2018-05-10T08:33:07.876Z,23.30
2018-05-10T08:35:36.845Z,24.80
2018-05-10T08:38:05.496Z,26.30
2018-05-10T08:43:26.200Z,24.00
2018-05-10T08:45:54.607Z,24.40
2018-05-10T08:48:23.030Z,24.60
2018-05-10T08:50:53.911Z,23.30
2018-05-10T08:53:24.912Z,24.60
2018-05-10T08:55:53.984Z,26.10
2018-05-10T08:58:26.134Z,25.90
2018-05-10T09:00:56.062Z,24.20
2018-05-10T09:03:25.326Z,24.20
2018-05-10T09:05:54.692Z,23.30
2018-05-10T09:08:24.781Z,24.90
2018-05-10T09:10:54.427Z,24.90
2018-05-10T09:13:25.288Z,26.10
2018-05-10T09:15:56.753Z,24.20
2018-05-10T09:18:26.475Z,23.20
2018-05-10T09:20:55.927Z,22.80
2018-05-10T09:23:25.251Z,22.50
2018-05-10T09:25:56.011Z,22.00
2018-05-10T09:32:01.301Z,21.70
2018-05-10T09:34:39.053Z,23.00
2018-05-10T09:37:08.405Z,22.20
2018-05-10T09:39:37.735Z,21.70
2018-05-10T09:42:07.794Z,21.80
2018-05-10T09:44:43.492Z,21.80
2018-05-10T09:47:13.652Z,21.10
2018-05-10T09:49:43.159Z,21.10
2018-05-10T09:52:12.618Z,21.60
2018-05-10T09:54:43.437Z,22.20
2018-05-10T09:57:26.302Z,22.20
2018-05-10T09:59:56.585Z,20.90
2018-05-10T10:02:26.301Z,20.90
2018-05-10T10:05:10.934Z,20.60
2018-05-10T10:10:39.663Z,21.40
2018-05-10T10:13:13.359Z,21.30
2018-05-10T10:15:43.491Z,22.10
2018-05-10T10:18:13.112Z,22.60
2018-05-10T10:21:04.241Z,22.80
2018-05-10T10:23:34.744Z,23.30
2018-05-10T10:26:05.631Z,23.60
2018-05-10T10:31:29.294Z,23.90
2018-05-10T10:34:13.445Z,23.80
2018-05-10T10:37:00.618Z,23.20
2018-05-10T10:39:42.601Z,23.30
2018-05-10T10:42:42.623Z,23.60
2018-05-10T10:45:14.794Z,23.60
2018-05-10T10:47:47.134Z,24.00
2018-05-10T10:50:25.038Z,24.40
2018-05-10T10:52:57.128Z,24.40
2018-05-10T10:55:27.217Z,24.30
2018-05-10T10:58:03.245Z,23.40
2018-05-10T11:00:36.020Z,23.40
2018-05-10T11:06:49.579Z,24.50
2018-05-10T11:09:45.161Z,23.10
2018-05-10T11:12:23.444Z,23.10
2018-05-10T11:15:12.556Z,24.40
2018-05-10T11:17:49.358Z,23.80
2018-05-10T11:20:20.911Z,23.70
2018-05-10T11:22:52.247Z,22.80
2018-05-10T11:25:21.668Z,23.50
2018-05-10T11:28:12.846Z,24.00
2018-05-10T11:30:49.052Z,23.30
2018-05-10T11:33:27.094Z,21.70
2018-05-10T11:39:39.339Z,21.40
2018-05-10T11:42:47.341Z,21.40
2018-05-10T11:45:17.735Z,21.20
2018-05-10T11:48:00.750Z,21.80
2018-05-10T11:50:30.552Z,22.20
2018-05-10T11:53:00.505Z,22.60
2018-05-10T11:55:29.976Z,22.60
2018-05-10T11:57:59.349Z,22.70
2018-05-10T12:00:52.178Z,22.80
2018-05-10T12:03:23.112Z,22.90
2018-05-10T12:05:54.211Z,22.60
2018-05-10T12:08:23.624Z,22.70
2018-05-10T12:10:53.021Z,22.70
2018-05-10T12:13:22.687Z,22.70
2018-05-10T12:15:52.111Z,22.80
2018-05-10T12:18:22.281Z,22.50
2018-05-10T12:21:05.083Z,22.50
2018-05-10T12:23:35.169Z,22.40
2018-05-10T12:26:06.273Z,22.40
2018-05-10T12:28:41.937Z,22.70
2018-05-10T12:31:15.464Z,23.20
2018-05-10T12:33:49.163Z,23.20
2018-05-10T12:36:18.610Z,22.50
2018-05-10T12:38:48.591Z,22.40
2018-05-10T12:41:17.876Z,22.70
2018-05-10T12:46:36.023Z,23.30
2018-05-10T12:49:05.381Z,23.90
2018-05-10T12:51:35.159Z,23.70
2018-05-10T12:54:04.541Z,23.40
2018-05-10T12:56:34.665Z,23.90
2018-05-10T12:59:04.356Z,23.90
2018-05-10T13:01:33.721Z,23.80
2018-05-10T13:04:03.193Z,23.90
2018-05-10T13:10:02.899Z,23.40
2018-05-10T13:13:18.520Z,23.30
2018-05-10T13:16:18.010Z,22.70
2018-05-10T13:18:55.726Z,24.30
2018-05-10T13:21:28.966Z,24.20
2018-05-10T13:24:28.468Z,24.80
2018-05-10T13:27:16.126Z,24.10
2018-05-10T13:29:46.026Z,24.00
2018-05-10T13:32:15.403Z,24.30
2018-05-10T13:34:46.350Z,24.60
2018-05-10T13:37:56.342Z,24.70
2018-05-10T13:40:26.056Z,24.60
2018-05-10T13:43:09.443Z,24.90
2018-05-10T13:45:40.888Z,24.70
2018-05-10T13:48:50.514Z,24.10
2018-05-10T13:51:27.056Z,24.00
2018-05-10T13:53:59.077Z,23.80
2018-05-10T13:56:39.653Z,24.00
2018-05-10T13:59:15.350Z,24.10
2018-05-10T14:01:57.700Z,24.20
2018-05-10T14:04:42.337Z,24.20
2018-05-10T14:07:37.842Z,24.00
2018-05-10T14:10:37.591Z,23.30
2018-05-10T14:13:18.765Z,22.90
2018-05-10T14:16:04.235Z,22.60
2018-05-10T14:18:37.067Z,22.10
2018-05-10T14:21:07.857Z,22.10
2018-05-10T14:23:38.331Z,21.60
2018-05-10T14:26:08.969Z,21.60
2018-05-10T14:28:38.966Z,21.60
2018-05-10T14:31:08.386Z,21.20
2018-05-10T14:33:39.684Z,20.90
2018-05-10T14:36:10.796Z,20.90
2018-05-10T14:38:42.375Z,20.50
2018-05-10T14:41:12.358Z,20.30
2018-05-10T14:43:43.844Z,20.10
2018-05-10T14:46:22.846Z,20.10
2018-05-10T14:49:08.637Z,21.50
2018-05-10T14:53:09.762Z,21.50
2018-05-10T14:55:39.801Z,21.60
2018-05-10T14:58:09.184Z,21.30
2018-05-10T15:00:40.467Z,21.50
2018-05-10T15:03:11.245Z,21.80
2018-05-10T15:05:41.471Z,22.30
2018-05-10T15:08:12.065Z,22.90
2018-05-10T15:10:46.516Z,23.70
2018-05-10T15:13:30.568Z,23.70
2018-05-10T15:16:05.142Z,22.80
2018-05-10T15:18:34.782Z,22.70
2018-05-10T15:21:05.321Z,22.90
2018-05-10T15:23:35.178Z,22.80
2018-05-10T15:29:40.926Z,22.00
2018-05-10T15:32:14.724Z,21.70
2018-05-10T15:34:44.320Z,21.50
2018-05-10T15:37:15.413Z,21.30
2018-05-10T15:39:45.334Z,20.60
2018-05-10T15:42:15.884Z,21.00
2018-05-10T15:44:46.009Z,21.30
2018-05-10T15:47:16.237Z,21.70
2018-05-10T15:49:46.044Z,21.60
2018-05-10T15:52:15.885Z,21.80
2018-05-10T15:54:54.851Z,21.70
2018-05-10T15:57:24.856Z,21.70
2018-05-10T16:00:01.125Z,21.50
2018-05-10T16:02:36.454Z,21.90
2018-05-10T16:05:07.119Z,21.90
2018-05-10T16:10:12.537Z,21.70
2018-05-10T16:12:42.613Z,21.30
2018-05-10T16:15:21.153Z,21.30
2018-05-10T16:17:53.054Z,20.90
2018-05-10T16:20:24.637Z,20.70
2018-05-10T16:22:54.219Z,20.70
2018-05-10T16:25:26.332Z,20.30
2018-05-10T16:28:07.247Z,20.40
2018-05-10T16:30:41.341Z,20.50
2018-05-10T16:33:12.528Z,20.50
2018-05-10T16:35:43.970Z,20.40
2018-05-10T16:38:13.549Z,20.60
2018-05-10T16:40:49.161Z,20.90
2018-05-10T16:43:25.700Z,21.20
2018-05-10T16:45:55.232Z,21.10
2018-05-10T16:48:24.840Z,20.60
2018-05-10T16:50:59.505Z,20.40
2018-05-10T16:53:30.309Z,20.40
2018-05-10T16:56:08.099Z,20.70
2018-05-10T16:58:38.664Z,20.60
2018-05-10T17:01:13.879Z,20.70
2018-05-10T17:03:43.680Z,20.90
2018-05-10T17:06:19.407Z,21.00
2018-05-10T17:08:52.768Z,20.70
2018-05-10T17:11:22.083Z,20.60
2018-05-10T17:14:28.260Z,19.60
2018-05-10T17:17:03.955Z,19.70
2018-05-10T17:19:53.301Z,19.70
2018-05-10T17:22:27.268Z,19.90
2018-05-10T17:24:56.757Z,19.90
2018-05-10T17:27:26.024Z,19.70
2018-05-10T17:29:57.254Z,19.60
2018-05-10T17:32:26.989Z,19.60
2018-05-10T17:34:56.302Z,19.70
2018-05-10T17:37:26.214Z,19.60
2018-05-10T17:43:50.206Z,19.50
2018-05-10T17:46:37.643Z,19.30
2018-05-10T17:49:07.384Z,19.10
2018-05-10T17:54:45.397Z,18.80
2018-05-10T17:57:19.330Z,18.80
2018-05-10T17:59:49.888Z,18.70
2018-05-10T18:02:34.720Z,18.60
2018-05-10T18:05:06.899Z,18.70
2018-05-10T18:07:38.832Z,18.50
2018-05-10T18:10:08.743Z,18.50
2018-05-10T18:12:40.521Z,18.20
2018-05-10T18:15:10.087Z,18.30
2018-05-10T18:17:39.381Z,18.20
2018-05-10T18:20:09.297Z,18.10
2018-05-10T18:22:39.543Z,18.00
2018-05-10T18:25:10.503Z,17.60
2018-05-10T18:27:41.582Z,17.60
2018-05-10T18:30:13.131Z,17.30
2018-05-10T18:33:12.506Z,17.30
2018-05-10T18:39:36.467Z,17.20
2018-05-10T18:42:21.750Z,17.10
2018-05-10T18:44:53.476Z,16.90
2018-05-10T18:47:24.972Z,16.90
2018-05-10T18:50:02.605Z,16.40
2018-05-10T18:56:24.030Z,16.40
2018-05-10T18:58:56.550Z,16.60
2018-05-10T19:01:29.576Z,16.80
2018-05-10T19:04:00.573Z,16.40
2018-05-10T19:06:31.042Z,16.40
2018-05-10T19:09:00.439Z,16.60
2018-05-10T19:11:29.739Z,16.50
2018-05-10T19:13:59.375Z,16.40
2018-05-10T19:16:30.444Z,16.20
2018-05-10T19:18:59.732Z,15.90
2018-05-10T19:21:31.936Z,15.90
2018-05-10T19:24:01.371Z,15.90
2018-05-10T19:26:30.793Z,15.70
2018-05-10T19:29:00.503Z,15.90
2018-05-10T19:31:30.648Z,15.80
2018-05-10T19:33:59.948Z,15.80
2018-05-10T19:36:30.646Z,15.80
2018-05-10T19:38:59.923Z,15.80
2018-05-10T19:41:29.223Z,15.80
2018-05-10T19:44:09.085Z,15.80
2018-05-10T19:46:39.443Z,15.90
2018-05-10T19:49:09.577Z,15.40
2018-05-10T19:51:39.445Z,15.40
2018-05-10T19:54:08.783Z,15.30
2018-05-10T19:56:38.969Z,15.10
2018-05-10T19:59:09.187Z,15.10
2018-05-10T20:01:38.464Z,15.40
2018-05-10T20:04:07.812Z,15.60
2018-05-10T20:06:37.431Z,15.70
2018-05-10T20:09:07.516Z,15.70
2018-05-10T20:11:39.093Z,15.80
2018-05-10T20:14:08.808Z,15.90
2018-05-10T20:16:38.145Z,15.80
2018-05-10T20:19:07.958Z,15.70
2018-05-10T20:21:37.700Z,15.60
2018-05-10T20:24:07.464Z,15.60
2018-05-10T20:26:36.984Z,15.60
2018-05-10T20:29:06.815Z,15.40
2018-05-10T20:31:36.267Z,15.20
2018-05-10T20:34:05.660Z,15.40
2018-05-10T20:36:36.168Z,15.60
2018-05-10T20:39:06.110Z,15.80
2018-05-10T20:41:41.074Z,15.80
2018-05-10T20:44:10.839Z,15.90
2018-05-10T20:46:40.504Z,15.60
2018-05-10T20:49:22.091Z,15.50
2018-05-10T20:51:51.674Z,15.30
2018-05-10T20:54:22.716Z,15.70
2018-05-10T20:56:52.984Z,15.70
2018-05-10T20:59:22.525Z,15.40
2018-05-10T21:01:51.769Z,15.40
2018-05-10T21:04:22.051Z,15.70
2018-05-10T21:06:51.484Z,15.60
2018-05-10T21:09:21.693Z,15.60
2018-05-10T21:11:51.023Z,15.40
2018-05-10T21:14:20.727Z,15.40
2018-05-10T21:16:49.992Z,15.60
2018-05-10T21:19:20.806Z,15.30
2018-05-10T21:21:50.470Z,15.30
2018-05-10T21:24:19.741Z,15.40
2018-05-10T21:26:49.108Z,15.60
2018-05-10T21:29:26.603Z,15.30
2018-05-10T21:32:00.487Z,15.40
2018-05-10T21:34:37.945Z,15.60
2018-05-10T21:37:12.896Z,15.60
2018-05-10T21:40:02.082Z,15.50
2018-05-10T21:42:37.720Z,15.60
2018-05-10T21:45:07.272Z,15.50
2018-05-10T21:47:38.295Z,14.80
2018-05-10T21:50:08.189Z,14.90
2018-05-10T21:52:39.993Z,15.20
2018-05-10T21:55:09.203Z,15.30
2018-05-10T21:57:39.256Z,15.40
2018-05-10T22:00:08.827Z,15.30
2018-05-10T22:02:38.111Z,15.40
2018-05-10T22:05:07.406Z,15.40
2018-05-10T22:07:37.433Z,15.20
2018-05-10T22:10:07.002Z,15.20
2018-05-10T22:12:36.353Z,15.30
2018-05-10T22:15:06.307Z,15.10
2018-05-10T22:17:35.649Z,15.20
2018-05-10T22:20:04.991Z,15.40
2018-05-10T22:22:34.741Z,15.60
2018-05-10T22:25:03.961Z,15.60
2018-05-10T22:27:33.385Z,15.60
2018-05-10T22:30:03.025Z,15.40
2018-05-10T22:32:32.314Z,15.60
2018-05-10T22:35:02.756Z,15.40
2018-05-10T22:37:32.073Z,15.40
2018-05-10T22:40:01.379Z,15.60
2018-05-10T22:42:30.635Z,15.50
2018-05-10T22:45:00.079Z,15.10
2018-05-10T22:47:29.461Z,15.30
2018-05-10T22:49:58.759Z,15.30
2018-05-10T22:52:28.810Z,15.20
2018-05-10T22:54:58.071Z,15.10
2018-05-10T22:57:28.156Z,15.40
2018-05-10T22:59:57.457Z,15.30
2018-05-10T23:02:26.712Z,15.20
2018-05-10T23:04:55.997Z,15.40
2018-05-10T23:07:25.291Z,15.20
2018-05-10T23:09:54.868Z,15.20
2018-05-10T23:12:24.177Z,15.00
2018-05-10T23:14:53.447Z,14.80
2018-05-10T23:17:22.783Z,14.90
2018-05-10T23:19:52.051Z,14.80
2018-05-10T23:22:21.474Z,14.80
2018-05-10T23:24:50.744Z,14.80
2018-05-10T23:27:20.056Z,14.80
2018-05-10T23:29:49.328Z,14.70
2018-05-10T23:32:19.353Z,14.40
2018-05-10T23:34:48.683Z,14.40
2018-05-10T23:37:17.987Z,14.40
2018-05-10T23:39:48.277Z,14.40
2018-05-10T23:42:17.543Z,14.30
2018-05-10T23:44:46.844Z,14.40
2018-05-10T23:47:16.244Z,14.40
2018-05-10T23:49:45.516Z,14.50
2018-05-10T23:52:14.875Z,14.40
2018-05-10T23:54:44.227Z,14.30
2018-05-10T23:57:15.016Z,14.10
2018-05-10T23:59:44.299Z,14.10
